Time;durP1;ratioP1;P1;durP2;ratioP2;P2;SDS_P1;SDS_P2;PMS_P1;PMS_P2;Temp;Humidity;BMP_temperature;BMP_pressure;BME280_temperature;BME280_humidity;BME280_pressure;Samples;Min_cycle;Max_cycle;Signal;HPM_P1;HPM_P2
2022/05/07 00:03:41;;;;;;;12.52;5.22;;;;;;;;;;10359922;28;20068;-65
2022/05/07 00:08:40;;;;;;;9.07;5.40;;;;;;;;;;10360786;28;20071;-65
2022/05/07 00:13:39;;;;;;;8.73;5.22;;;;;;;;;;10359044;28;20528;-65
2022/05/07 00:18:37;;;;;;;8.25;5.65;;;;;;;;;;10357948;28;20072;-64
2022/05/07 00:23:37;;;;;;;8.02;5.03;;;;;;;;;;10360210;28;20080;-65
2022/05/07 00:28:36;;;;;;;10.80;4.78;;;;;;;;;;10359710;28;20063;-66
2022/05/07 00:33:36;;;;;;;8.93;4.75;;;;;;;;;;10358968;28;20040;-65
2022/05/07 00:38:34;;;;;;;7.20;4.93;;;;;;;;;;10359021;28;20067;-65
2022/05/07 00:43:36;;;;;;;9.32;5.13;;;;;;;;;;10359299;28;20068;-65
2022/05/07 00:48:34;;;;;;;10.15;5.25;;;;;;;;;;10356649;28;20058;-65
2022/05/07 00:53:34;;;;;;;12.75;5.10;;;;;;;;;;10358392;28;20075;-65
2022/05/07 00:58:34;;;;;;;6.90;4.78;;;;;;;;;;10354745;28;20060;-65
2022/05/07 01:03:33;;;;;;;8.73;4.70;;;;;;;;;;10355871;28;20098;-65
2022/05/07 01:08:33;;;;;;;7.35;5.70;;;;;;;;;;10353734;28;20056;-65
2022/05/07 01:13:33;;;;;;;10.15;5.93;;;;;;;;;;10356205;28;20599;-65
2022/05/07 01:18:31;;;;;;;6.70;5.20;;;;;;;;;;10355872;28;20059;-66
2022/05/07 01:23:32;;;;;;;8.95;5.38;;;;;;;;;;10355485;28;20106;-65
2022/05/07 01:28:30;;;;;;;13.90;5.57;;;;;;;;;;10353802;28;20048;-65
2022/05/07 01:33:33;;;;;;;9.88;5.38;;;;;;;;;;10355569;28;20044;-64
2022/05/07 01:38:34;;;;;;;;;;;;;;;;;;10355945;28;20044;-65
2022/05/07 01:43:33;;;;;;;9.35;5.18;;;;;;;;;;10355145;28;19971;-65
2022/05/07 01:48:32;;;;;;;8.02;5.35;;;;;;;;;;10349742;28;20478;-65
2022/05/07 01:53:30;;;;;;;11.27;5.75;;;;;;;;;;10352949;28;20078;-65
2022/05/07 01:58:29;;;;;;;6.53;5.25;;;;;;;;;;10354346;28;20051;-65
2022/05/07 02:03:36;;;;;;;10.05;5.60;;;;;;;;;;10352325;28;20079;-65
2022/05/07 02:08:35;;;;;;;9.50;5.75;;;;;;;;;;10356281;28;20523;-65
2022/05/07 02:13:38;;;;;;;7.75;6.20;;;;;;;;;;10354860;28;20114;-64
2022/05/07 02:18:38;;;;;;;5.93;5.30;;;;;;;;;;10354021;28;20048;-65
2022/05/07 02:23:37;;;;;;;8.30;5.53;;;;;;;;;;10352042;28;20080;-65
2022/05/07 02:28:37;;;;;;;6.50;5.90;;;;;;;;;;10354041;28;20060;-65
2022/05/07 02:33:39;;;;;;;8.80;5.45;;;;;;;;;;10353482;28;20084;-65
2022/05/07 02:38:43;;;;;;;6.18;5.15;;;;;;;;;;10353580;28;20071;-66
2022/05/07 02:43:44;;;;;;;6.68;5.72;;;;;;;;;;10354635;28;20086;-65
2022/05/07 02:48:48;;;;;;;10.05;5.28;;;;;;;;;;10354603;28;20413;-65
2022/05/07 02:53:49;;;;;;;8.85;5.72;;;;;;;;;;10347708;28;20070;-65
2022/05/07 02:58:48;;;;;;;10.65;7.05;;;;;;;;;;10356542;28;20072;-65
2022/05/07 03:03:47;;;;;;;8.32;6.05;;;;;;;;;;10354255;28;20064;-65
2022/05/07 03:08:45;;;;;;;9.75;6.22;;;;;;;;;;10346671;28;20048;-65
2022/05/07 03:13:45;;;;;;;7.65;6.45;;;;;;;;;;10352637;28;20071;-65
2022/05/07 03:18:43;;;;;;;11.00;6.10;;;;;;;;;;10353089;28;20517;-65
2022/05/07 03:23:44;;;;;;;8.77;6.25;;;;;;;;;;10348565;28;20047;-65
2022/05/07 03:28:42;;;;;;;9.10;6.65;;;;;;;;;;10360342;28;20642;-65
2022/05/07 03:33:43;;;;;;;8.18;5.40;;;;;;;;;;10353995;28;20420;-65
2022/05/07 03:38:44;;;;;;;8.32;6.55;;;;;;;;;;10363153;28;20044;-65
2022/05/07 03:43:48;;;;;;;7.63;5.70;;;;;;;;;;10353716;28;20519;-65
2022/05/07 03:48:46;;;;;;;8.88;6.05;;;;;;;;;;10359192;28;20044;-65
2022/05/07 03:53:46;;;;;;;9.40;6.13;;;;;;;;;;10359258;28;20040;-65
2022/05/07 03:58:50;;;;;;;8.15;5.88;;;;;;;;;;10352798;28;20527;-65
2022/05/07 04:04:14;;;;;;;9.05;6.20;;;;;;;;;;10358320;28;20084;-65
2022/05/07 04:09:14;;;;;;;8.60;6.60;;;;;;;;;;10358546;28;20044;-64
2022/05/07 04:14:12;;;;;;;10.38;6.70;;;;;;;;;;10360316;28;20047;-65
2022/05/07 04:19:11;;;;;;;10.18;6.75;;;;;;;;;;10360551;28;20047;-64
2022/05/07 04:24:13;;;;;;;9.55;7.38;;;;;;;;;;10357715;28;20226;-65
2022/05/07 04:29:16;;;;;;;15.23;10.00;;;;;;;;;;10364251;28;20064;-63
2022/05/07 04:34:22;;;;;;;8.32;6.20;;;;;;;;;;10355329;28;20452;-64
2022/05/07 04:39:23;;;;;;;7.80;6.03;;;;;;;;;;10349647;28;20079;-64
2022/05/07 04:44:31;;;;;;;9.23;5.82;;;;;;;;;;10357000;28;20079;-64
2022/05/07 04:49:30;;;;;;;8.00;6.00;;;;;;;;;;10357064;28;20427;-63
2022/05/07 04:54:30;;;;;;;10.48;5.43;;;;;;;;;;10356283;28;20063;-65
2022/05/07 04:59:31;;;;;;;10.27;5.68;;;;;;;;;;10355781;28;20497;-63
2022/05/07 05:04:38;;;;;;;9.57;6.18;;;;;;;;;;10354863;28;20063;-64
2022/05/07 05:09:43;;;;;;;9.75;6.72;;;;;;;;;;10356035;28;20056;-64
2022/05/07 05:15:05;;;;;;;8.90;6.10;;;;;;;;;;10355425;28;20051;-64
2022/05/07 05:20:18;;;;;;;8.13;6.60;;;;;;;;;;10352784;28;20059;-65
2022/05/07 05:25:45;;;;;;;8.98;6.68;;;;;;;;;;10354043;28;20091;-64
2022/05/07 05:30:59;;;;;;;10.63;6.72;;;;;;;;;;10350771;28;20059;-65
2022/05/07 05:36:02;;;;;;;6.85;6.15;;;;;;;;;;10354908;28;20051;-64
2022/05/07 05:41:01;;;;;;;9.65;6.20;;;;;;;;;;10354574;28;20051;-64
2022/05/07 05:46:00;;;;;;;10.60;6.15;;;;;;;;;;10354499;28;20079;-64
2022/05/07 05:50:59;;;;;;;8.63;6.47;;;;;;;;;;10354704;28;20081;-64
2022/05/07 05:56:04;;;;;;;8.63;5.70;;;;;;;;;;10354392;28;20059;-64
2022/05/07 06:01:09;;;;;;;12.23;5.43;;;;;;;;;;10351118;28;20551;-65
2022/05/07 06:06:19;;;;;;;11.45;5.25;;;;;;;;;;10348616;28;20082;-65
2022/05/07 06:11:19;;;;;;;6.50;4.10;;;;;;;;;;10353417;28;20052;-65
2022/05/07 06:16:18;;;;;;;9.85;6.75;;;;;;;;;;10355365;28;20044;-65
2022/05/07 06:21:17;;;;;;;18.48;12.82;;;;;;;;;;10353206;28;20519;-65
2022/05/07 06:31:41;;;;;;;7.72;4.10;;;;;;;;;;10351998;28;20052;-65
2022/05/07 06:36:41;;;;;;;10.05;5.45;;;;;;;;;;10351759;28;20345;-65
2022/05/07 06:41:40;;;;;;;8.82;3.85;;;;;;;;;;10352423;28;20284;-66
2022/05/07 06:46:38;;;;;;;56.58;44.00;;;;;;;;;;10352528;28;20500;-66
2022/05/07 06:51:43;;;;;;;27.02;12.85;;;;;;;;;;10353384;28;20052;-66
2022/05/07 06:56:41;;;;;;;19.65;12.30;;;;;;;;;;10351560;28;20075;-65
2022/05/07 07:01:39;;;;;;;6.70;4.75;;;;;;;;;;10358860;28;20036;-66
2022/05/07 07:06:38;;;;;;;15.57;8.88;;;;;;;;;;10360824;28;20084;-66
2022/05/07 07:11:37;;;;;;;9.00;4.43;;;;;;;;;;10360253;28;20075;-66
2022/05/07 07:16:38;;;;;;;11.00;5.60;;;;;;;;;;10357640;28;20139;-66
2022/05/07 07:21:36;;;;;;;12.65;5.32;;;;;;;;;;10357122;28;20071;-66
2022/05/07 07:26:34;;;;;;;12.52;10.13;;;;;;;;;;10358336;28;20074;-66
2022/05/07 07:31:34;;;;;;;12.60;7.30;;;;;;;;;;10360671;28;20044;-66
2022/05/07 07:36:33;;;;;;;8.40;4.18;;;;;;;;;;10357721;28;20390;-65
2022/05/07 07:41:31;;;;;;;13.60;7.03;;;;;;;;;;10352089;28;20071;-66
2022/05/07 07:51:44;;;;;;;6.32;5.15;;;;;;;;;;10340783;28;20325;-66
2022/05/07 07:56:43;;;;;;;8.60;6.00;;;;;;;;;;10352274;28;20501;-66
2022/05/07 08:01:42;;;;;;;14.98;7.40;;;;;;;;;;10358092;28;20074;-67
2022/05/07 08:06:40;;;;;;;6.53;4.90;;;;;;;;;;10358631;28;20083;-66
2022/05/07 08:11:46;;;;;;;10.88;7.05;;;;;;;;;;10355147;28;20086;-67
2022/05/07 08:16:45;;;;;;;7.43;5.32;;;;;;;;;;10358356;28;20068;-65
2022/05/07 08:21:43;;;;;;;10.70;7.47;;;;;;;;;;10352916;28;20071;-66
2022/05/07 08:26:42;;;;;;;10.73;6.50;;;;;;;;;;10358468;28;20087;-64
2022/05/07 08:37:50;;;;;;;12.95;6.72;;;;;;;;;;10359182;28;20044;-50
2022/05/07 08:42:50;;;;;;;12.80;5.63;;;;;;;;;;10360156;28;20106;-53
2022/05/07 08:47:51;;;;;;;48.75;9.35;;;;;;;;;;10358170;28;21056;-51
2022/05/07 08:52:51;;;;;;;7.65;4.20;;;;;;;;;;10358473;28;20071;-53
2022/05/07 08:57:51;;;;;;;13.52;5.07;;;;;;;;;;10356631;28;20114;-51
2022/05/07 09:02:50;;;;;;;11.30;4.22;;;;;;;;;;10356330;28;20706;-52
2022/05/07 09:07:52;;;;;;;11.48;4.35;;;;;;;;;;10358489;28;20071;-53
2022/05/07 09:12:52;;;;;;;8.25;4.05;;;;;;;;;;10356583;28;20095;-55
2022/05/07 09:17:50;;;;;;;5.55;4.00;;;;;;;;;;10355561;28;20067;-52
2022/05/07 09:22:53;;;;;;;7.30;3.80;;;;;;;;;;10355497;28;20523;-55
2022/05/07 09:27:54;;;;;;;14.50;6.50;;;;;;;;;;10357152;28;20083;-56
2022/05/07 09:32:53;;;;;;;9.63;3.88;;;;;;;;;;10355550;28;20067;-56
2022/05/07 09:37:57;;;;;;;4.47;3.53;;;;;;;;;;10356823;28;20484;-54
2022/05/07 09:42:57;;;;;;;6.93;3.50;;;;;;;;;;10356119;28;20067;-53
2022/05/07 09:47:56;;;;;;;5.82;3.10;;;;;;;;;;10355006;28;20087;-50
2022/05/07 09:58:11;;;;;;;4.00;2.92;;;;;;;;;;10349635;28;20079;-52
2022/05/07 10:03:12;;;;;;;5.75;3.38;;;;;;;;;;10348816;28;20088;-55
2022/05/07 10:08:25;;;;;;;5.63;3.08;;;;;;;;;;10348401;28;20428;-53
2022/05/07 10:13:26;;;;;;;6.20;3.25;;;;;;;;;;10349575;28;20072;-54
2022/05/07 10:18:33;;;;;;;8.32;3.80;;;;;;;;;;10348726;28;20293;-53
2022/05/07 10:23:32;;;;;;;6.05;3.50;;;;;;;;;;10353841;28;20039;-54
2022/05/07 10:28:39;;;;;;;8.20;3.65;;;;;;;;;;10355024;28;20064;-52
2022/05/07 10:33:39;;;;;;;5.78;3.70;;;;;;;;;;10353225;28;20558;-56
2022/05/07 10:38:39;;;;;;;8.07;4.13;;;;;;;;;;10350255;28;20082;-57
2022/05/07 10:43:39;;;;;;;6.25;3.83;;;;;;;;;;10353179;28;20141;-54
2022/05/07 10:48:45;;;;;;;6.53;3.88;;;;;;;;;;10353590;28;20071;-54
2022/05/07 10:53:43;;;;;;;4.28;3.35;;;;;;;;;;10354669;28;20098;-54
2022/05/07 10:58:49;;;;;;;9.93;3.95;;;;;;;;;;10353935;28;20515;-50
2022/05/07 11:03:48;;;;;;;6.88;3.78;;;;;;;;;;10353808;28;20040;-55
2022/05/07 11:08:47;;;;;;;7.22;3.80;;;;;;;;;;10355190;28;20443;-52
2022/05/07 11:13:46;;;;;;;5.97;4.03;;;;;;;;;;10353285;28;20067;-55
2022/05/07 11:18:47;;;;;;;7.75;3.30;;;;;;;;;;10355001;28;20055;-50
2022/05/07 11:23:52;;;;;;;7.53;3.97;;;;;;;;;;10354111;28;20083;-53
2022/05/07 11:28:51;;;;;;;13.00;3.47;;;;;;;;;;10354663;28;20083;-56
2022/05/07 11:34:00;;;;;;;5.45;2.40;;;;;;;;;;10354669;28;20044;-56
2022/05/07 11:38:59;;;;;;;5.10;2.33;;;;;;;;;;10353998;28;20516;-54
2022/05/07 11:49:14;;;;;;;3.42;2.72;;;;;;;;;;10360564;28;20076;-53
2022/05/07 11:54:12;;;;;;;7.45;3.58;;;;;;;;;;10361098;28;20044;-54
2022/05/07 11:59:10;;;;;;;10.50;3.90;;;;;;;;;;10360813;28;20149;-55
2022/05/07 12:04:09;;;;;;;8.95;3.10;;;;;;;;;;10360458;28;20072;-51
2022/05/07 12:09:13;;;;;;;4.38;2.97;;;;;;;;;;10360765;28;20075;-49
2022/05/07 12:14:12;;;;;;;9.63;3.35;;;;;;;;;;10360245;28;20078;-53
2022/05/07 12:19:10;;;;;;;4.18;3.00;;;;;;;;;;10360119;28;20071;-55
2022/05/07 12:34:43;;;;;;;5.10;3.00;;;;;;;;;;10357831;28;20079;-56
2022/05/07 12:39:41;;;;;;;8.48;3.20;;;;;;;;;;10358046;28;20036;-56
2022/05/07 12:44:42;;;;;;;7.80;4.28;;;;;;;;;;10356125;28;20079;-61
2022/05/07 12:49:40;;;;;;;6.05;3.03;;;;;;;;;;10356208;28;20079;-58
2022/05/07 12:54:39;;;;;;;7.55;2.35;;;;;;;;;;10353538;28;20079;-60
2022/05/07 12:59:37;;;;;;;5.05;3.05;;;;;;;;;;10355542;28;20063;-60
2022/05/07 13:04:36;;;;;;;6.55;3.63;;;;;;;;;;10354119;28;20489;-61
2022/05/07 13:09:35;;;;;;;3.05;2.42;;;;;;;;;;10349234;28;20080;-61
2022/05/07 13:14:57;;;;;;;8.25;2.78;;;;;;;;;;10350828;28;20080;-61
2022/05/07 13:19:58;;;;;;;2.65;2.45;;;;;;;;;;10351118;28;20547;-62
2022/05/07 13:24:56;;;;;;;4.00;3.20;;;;;;;;;;10351714;28;20086;-62
2022/05/07 13:29:55;;;;;;;6.28;2.83;;;;;;;;;;10356524;28;20071;-62
2022/05/07 13:34:55;;;;;;;6.63;2.58;;;;;;;;;;10357299;28;20127;-62
2022/05/07 13:39:56;;;;;;;4.43;3.10;;;;;;;;;;10357956;28;20060;-61
2022/05/07 13:44:55;;;;;;;3.63;2.30;;;;;;;;;;10356312;28;20087;-61
2022/05/07 13:49:54;;;;;;;4.10;2.53;;;;;;;;;;10356317;28;20079;-61
2022/05/07 13:54:55;;;;;;;4.07;2.28;;;;;;;;;;10357570;28;20516;-61
2022/05/07 13:59:53;;;;;;;6.90;3.20;;;;;;;;;;10357322;28;20036;-61
2022/05/07 14:04:56;;;;;;;5.93;3.38;;;;;;;;;;10348782;28;20487;-61
2022/05/07 14:09:56;;;;;;;3.85;2.67;;;;;;;;;;10355514;28;20103;-62
2022/05/07 14:14:54;;;;;;;3.95;2.42;;;;;;;;;;10356824;28;20135;-61
2022/05/07 14:19:54;;;;;;;7.68;3.65;;;;;;;;;;10357038;28;20070;-61
2022/05/07 14:24:54;;;;;;;4.50;3.50;;;;;;;;;;10355255;28;20090;-61
2022/05/07 14:30:03;;;;;;;6.40;3.47;;;;;;;;;;10355642;28;20460;-62
2022/05/07 14:35:02;;;;;;;5.18;3.10;;;;;;;;;;10356078;28;20508;-61
2022/05/07 14:40:28;;;;;;;7.90;4.10;;;;;;;;;;10355904;28;20124;-61
2022/05/07 14:45:22;;;;;;;5.47;3.47;;;;;;;;;;10351879;28;20040;-61
2022/05/07 14:50:20;;;;;;;5.53;3.35;;;;;;;;;;10354846;28;20068;-61
2022/05/07 14:55:19;;;;;;;4.65;2.53;;;;;;;;;;10354502;28;20079;-60
2022/05/07 15:00:17;;;;;;;3.15;2.60;;;;;;;;;;10354873;28;20075;-60
2022/05/07 15:05:17;;;;;;;5.50;2.88;;;;;;;;;;10354626;28;20492;-60
2022/05/07 15:15:38;;;;;;;5.97;3.10;;;;;;;;;;10354789;28;20074;-61
2022/05/07 15:20:38;;;;;;;6.13;4.07;;;;;;;;;;10357841;28;20047;-60
2022/05/07 15:25:38;;;;;;;3.90;2.90;;;;;;;;;;10361788;28;20489;-60
2022/05/07 15:30:36;;;;;;;8.52;4.90;;;;;;;;;;10361620;28;20079;-61
2022/05/07 15:40:54;;;;;;;9.27;4.57;;;;;;;;;;10361547;28;20079;-60
2022/05/07 15:45:52;;;;;;;9.05;4.53;;;;;;;;;;10361330;28;20429;-60
2022/05/07 15:50:56;;;;;;;8.05;3.97;;;;;;;;;;10361126;28;20071;-60
2022/05/07 15:55:54;;;;;;;8.95;3.30;;;;;;;;;;10360247;28;20485;-60
2022/05/07 16:01:04;;;;;;;10.20;3.83;;;;;;;;;;10361003;28;20071;-60
2022/05/07 16:06:06;;;;;;;9.77;4.47;;;;;;;;;;10360566;28;20079;-60
2022/05/07 16:11:04;;;;;;;5.45;3.80;;;;;;;;;;10360039;28;20087;-60
2022/05/07 16:16:03;;;;;;;10.00;6.47;;;;;;;;;;10359647;28;20067;-60
2022/05/07 16:21:01;;;;;;;5.35;3.78;;;;;;;;;;10359969;28;20075;-60
2022/05/07 16:26:05;;;;;;;6.32;4.22;;;;;;;;;;10360268;28;20080;-60
2022/05/07 16:31:03;;;;;;;3.80;3.35;;;;;;;;;;10359204;28;20068;-60
2022/05/07 16:36:04;;;;;;;5.40;3.55;;;;;;;;;;10359564;28;20497;-61
2022/05/07 16:41:02;;;;;;;4.97;2.65;;;;;;;;;;10359334;28;20067;-60
2022/05/07 16:46:03;;;;;;;5.18;2.60;;;;;;;;;;10359486;28;20072;-61
2022/05/07 16:51:01;;;;;;;10.95;3.38;;;;;;;;;;10358553;28;20099;-60
2022/05/07 16:55:59;;;;;;;4.85;2.88;;;;;;;;;;10358782;28;20421;-60
2022/05/07 17:00:57;;;;;;;7.10;2.67;;;;;;;;;;10358388;28;20084;-61
2022/05/07 17:05:57;;;;;;;7.10;2.50;;;;;;;;;;10358664;28;20415;-60
2022/05/07 17:10:56;;;;;;;5.32;2.83;;;;;;;;;;10358203;28;20525;-60
2022/05/07 17:15:56;;;;;;;9.15;2.67;;;;;;;;;;10358085;28;20079;-60
2022/05/07 17:20:58;;;;;;;6.25;2.47;;;;;;;;;;10357360;28;20068;-60
2022/05/07 17:25:56;;;;;;;12.98;2.42;;;;;;;;;;10357746;28;20416;-60
2022/05/07 17:30:56;;;;;;;4.80;2.17;;;;;;;;;;10357398;28;20072;-60
2022/05/07 17:35:54;;;;;;;4.35;2.63;;;;;;;;;;10351235;28;20066;-60
2022/05/07 17:40:54;;;;;;;6.80;2.50;;;;;;;;;;10357548;28;20520;-60
2022/05/07 17:45:57;;;;;;;5.00;2.40;;;;;;;;;;10356658;28;20040;-60
2022/05/07 17:50:56;;;;;;;3.95;2.60;;;;;;;;;;10356933;28;20082;-60
2022/05/07 17:55:55;;;;;;;12.25;4.90;;;;;;;;;;10356575;28;20489;-60
2022/05/07 18:00:56;;;;;;;7.43;3.00;;;;;;;;;;10355674;28;20233;-60
2022/05/07 18:05:56;;;;;;;6.82;2.85;;;;;;;;;;10353214;28;20090;-60
2022/05/07 18:10:56;;;;;;;13.48;2.60;;;;;;;;;;10354519;28;20493;-59
2022/05/07 18:15:54;;;;;;;5.28;2.63;;;;;;;;;;10353631;28;20091;-60
2022/05/07 18:20:56;;;;;;;5.78;2.70;;;;;;;;;;10351238;28;20079;-60
2022/05/07 18:25:56;;;;;;;5.60;3.13;;;;;;;;;;10351803;28;20078;-60
2022/05/07 18:30:54;;;;;;;6.35;2.78;;;;;;;;;;10351330;28;20079;-60
2022/05/07 18:35:52;;;;;;;10.85;3.67;;;;;;;;;;10354336;28;20044;-60
2022/05/07 18:46:08;;;;;;;6.60;3.20;;;;;;;;;;10353899;28;20072;-60
2022/05/07 18:51:08;;;;;;;6.28;2.97;;;;;;;;;;10354578;28;20071;-60
2022/05/07 19:01:27;;;;;;;6.82;3.17;;;;;;;;;;10362259;28;20262;-60
2022/05/07 19:06:26;;;;;;;8.13;4.43;;;;;;;;;;10360894;28;20141;-60
2022/05/07 19:11:24;;;;;;;7.28;3.53;;;;;;;;;;10361601;28;20079;-60
2022/05/07 19:16:22;;;;;;;4.20;2.92;;;;;;;;;;10361560;28;20064;-59
2022/05/07 19:21:22;;;;;;;4.13;2.60;;;;;;;;;;10361788;28;20056;-60
2022/05/07 19:26:20;;;;;;;3.47;2.47;;;;;;;;;;10362850;28;20180;-60
2022/05/07 19:31:24;;;;;;;6.90;2.97;;;;;;;;;;10361854;28;20524;-60
2022/05/07 19:36:24;;;;;;;7.45;3.40;;;;;;;;;;10362156;28;20123;-59
2022/05/07 19:41:41;;;;;;;7.22;2.88;;;;;;;;;;10361966;28;20071;-59
2022/05/07 19:46:40;;;;;;;7.25;3.50;;;;;;;;;;10360331;28;20523;-60
2022/05/07 19:51:39;;;;;;;5.93;2.60;;;;;;;;;;10359812;28;20079;-61
2022/05/07 19:56:38;;;;;;;4.20;2.80;;;;;;;;;;10359428;28;20067;-61
2022/05/07 20:01:36;;;;;;;5.47;2.72;;;;;;;;;;10358808;28;20080;-60
2022/05/07 20:06:51;;;;;;;3.92;2.95;;;;;;;;;;10359708;28;20493;-59
2022/05/07 20:11:50;;;;;;;4.30;2.65;;;;;;;;;;10357444;28;20083;-59
2022/05/07 20:16:48;;;;;;;6.60;2.90;;;;;;;;;;10360198;28;20044;-60
2022/05/07 20:21:52;;;;;;;3.20;2.70;;;;;;;;;;10360243;28;20043;-60
2022/05/07 20:26:52;;;;;;;6.57;3.20;;;;;;;;;;10359180;28;20068;-59
2022/05/07 20:31:50;;;;;;;4.07;2.78;;;;;;;;;;10359307;28;20084;-59
2022/05/07 20:36:49;;;;;;;3.85;2.60;;;;;;;;;;10349988;28;20051;-59
2022/05/07 20:41:48;;;;;;;5.75;3.03;;;;;;;;;;10357462;28;20135;-60
2022/05/07 20:46:48;;;;;;;6.07;2.92;;;;;;;;;;10359453;28;20072;-59
2022/05/07 20:51:47;;;;;;;4.80;2.85;;;;;;;;;;10357970;28;20517;-60
2022/05/07 20:56:48;;;;;;;3.70;2.45;;;;;;;;;;10357726;28;20067;-60
2022/05/07 21:01:48;;;;;;;10.00;2.85;;;;;;;;;;10359004;28;20398;-60
2022/05/07 21:06:49;;;;;;;2.83;2.20;;;;;;;;;;10358501;28;20044;-60
2022/05/07 21:11:48;;;;;;;6.57;2.75;;;;;;;;;;10357708;28;20075;-60
2022/05/07 21:16:48;;;;;;;3.47;2.35;;;;;;;;;;10357357;28;20083;-60
2022/05/07 21:21:46;;;;;;;6.65;3.33;;;;;;;;;;10357817;28;20067;-60
2022/05/07 21:26:44;;;;;;;3.95;3.20;;;;;;;;;;10357581;28;20480;-60
2022/05/07 21:31:43;;;;;;;5.55;2.90;;;;;;;;;;10357441;28;20071;-60
2022/05/07 21:36:44;;;;;;;8.02;2.80;;;;;;;;;;10356364;28;20047;-61
2022/05/07 21:41:43;;;;;;;4.63;2.53;;;;;;;;;;10354307;28;20091;-59
2022/05/07 21:46:48;;;;;;;2.95;2.47;;;;;;;;;;10354848;28;20067;-60
2022/05/07 21:51:59;;;;;;;3.78;2.45;;;;;;;;;;10352432;28;20072;-60
2022/05/07 21:56:57;;;;;;;4.38;2.70;;;;;;;;;;10352570;28;20108;-59
2022/05/07 22:01:56;;;;;;;4.88;2.45;;;;;;;;;;10354325;28;20484;-60
2022/05/07 22:06:55;;;;;;;4.72;3.38;;;;;;;;;;10356394;28;20072;-59
2022/05/07 22:11:54;;;;;;;5.05;2.42;;;;;;;;;;10350070;28;20094;-60
2022/05/07 22:16:52;;;;;;;6.00;2.70;;;;;;;;;;10356130;28;20048;-60
2022/05/07 22:21:50;;;;;;;5.43;2.53;;;;;;;;;;10355814;28;20068;-60
2022/05/07 22:26:50;;;;;;;4.30;2.45;;;;;;;;;;10355862;28;20067;-60
2022/05/07 22:31:48;;;;;;;3.90;2.70;;;;;;;;;;10354776;28;20072;-60
2022/05/07 22:36:46;;;;;;;4.85;2.70;;;;;;;;;;10355822;28;20476;-60
2022/05/07 22:41:44;;;;;;;3.42;2.03;;;;;;;;;;10355309;28;20098;-60
2022/05/07 22:46:44;;;;;;;4.25;2.83;;;;;;;;;;10355579;28;20102;-60
2022/05/07 22:51:42;;;;;;;5.65;1.98;;;;;;;;;;10355051;28;20474;-60
2022/05/07 22:56:40;;;;;;;4.95;2.50;;;;;;;;;;10355276;28;20068;-60
2022/05/07 23:01:39;;;;;;;6.03;2.63;;;;;;;;;;10355267;28;20087;-60
2022/05/07 23:06:38;;;;;;;3.38;2.50;;;;;;;;;;10355290;28;20090;-60
2022/05/07 23:11:41;;;;;;;6.80;2.75;;;;;;;;;;10354591;28;20095;-60
2022/05/07 23:16:39;;;;;;;5.95;2.47;;;;;;;;;;10354684;28;20068;-60
2022/05/07 23:21:39;;;;;;;6.05;3.13;;;;;;;;;;10354941;28;20071;-60
2022/05/07 23:26:37;;;;;;;5.45;2.75;;;;;;;;;;10354628;28;20462;-60
2022/05/07 23:31:35;;;;;;;5.43;2.45;;;;;;;;;;10354517;28;20067;-60
2022/05/07 23:36:34;;;;;;;3.15;2.20;;;;;;;;;;10354492;28;20048;-60
2022/05/07 23:41:33;;;;;;;4.15;2.10;;;;;;;;;;10355514;28;20072;-61
2022/05/07 23:46:31;;;;;;;4.90;2.38;;;;;;;;;;10356590;28;20032;-60
2022/05/07 23:51:30;;;;;;;4.55;2.40;;;;;;;;;;10362707;28;20524;-59
2022/05/07 23:56:28;;;;;;;5.22;2.72;;;;;;;;;;10360455;28;20076;-60
